sensor_id;sensor_type;location;lat;lon;timestamp;temperature;humidity
61207;DHT22;47070;49.212;8.084;2022-11-20T00:01:49;8.30;99.90
61207;DHT22;47070;49.212;8.084;2022-11-20T00:05:50;8.30;99.90
61207;DHT22;47070;49.212;8.084;2022-11-20T00:09:51;8.20;99.90
61207;DHT22;47070;49.212;8.084;2022-11-20T00:13:54;8.30;99.90
61207;DHT22;47070;49.212;8.084;2022-11-20T00:17:54;8.20;99.90
61207;DHT22;47070;49.212;8.084;2022-11-20T00:21:55;8.20;99.90
61207;DHT22;47070;49.212;8.084;2022-11-20T00:25:56;8.10;99.90
61207;DHT22;47070;49.212;8.084;2022-11-20T00:29:56;8.30;99.90
61207;DHT22;47070;49.212;8.084;2022-11-20T00:33:57;8.40;99.90
61207;DHT22;47070;49.212;8.084;2022-11-20T00:37:57;8.40;99.90
61207;DHT22;47070;49.212;8.084;2022-11-20T00:41:58;8.40;99.90
61207;DHT22;47070;49.212;8.084;2022-11-20T00:46:04;8.40;99.90
61207;DHT22;47070;49.212;8.084;2022-11-20T00:50:05;8.40;99.90
61207;DHT22;47070;49.212;8.084;2022-11-20T00:54:06;8.40;99.90
61207;DHT22;47070;49.212;8.084;2022-11-20T00:58:06;8.40;99.90
61207;DHT22;47070;49.212;8.084;2022-11-20T01:02:07;8.60;99.90
61207;DHT22;47070;49.212;8.084;2022-11-20T01:06:13;8.50;99.90
61207;DHT22;47070;49.212;8.084;2022-11-20T01:10:13;8.40;99.90
61207;DHT22;47070;49.212;8.084;2022-11-20T01:14:19;8.40;99.90
61207;DHT22;47070;49.212;8.084;2022-11-20T01:18:19;8.40;99.90
61207;DHT22;47070;49.212;8.084;2022-11-20T01:22:20;8.30;99.90
61207;DHT22;47070;49.212;8.084;2022-11-20T01:26:23;8.30;99.90
61207;DHT22;47070;49.212;8.084;2022-11-20T01:30:24;8.30;99.90
61207;DHT22;47070;49.212;8.084;2022-11-20T01:34:24;8.30;99.90
61207;DHT22;47070;49.212;8.084;2022-11-20T01:38:25;8.10;99.90
61207;DHT22;47070;49.212;8.084;2022-11-20T01:42:26;8.00;99.90
61207;DHT22;47070;49.212;8.084;2022-11-20T01:46:57;8.50;99.90
61207;DHT22;47070;49.212;8.084;2022-11-20T01:50:59;8.40;99.90
61207;DHT22;47070;49.212;8.084;2022-11-20T01:55:05;8.50;99.90
61207;DHT22;47070;49.212;8.084;2022-11-20T01:59:08;8.20;99.90
61207;DHT22;47070;49.212;8.084;2022-11-20T02:03:13;8.20;99.90
61207;DHT22;47070;49.212;8.084;2022-11-20T02:07:14;7.90;99.90
61207;DHT22;47070;49.212;8.084;2022-11-20T02:11:16;8.20;99.90
61207;DHT22;47070;49.212;8.084;2022-11-20T02:15:16;8.00;99.90
61207;DHT22;47070;49.212;8.084;2022-11-20T02:19:26;8.00;99.90
61207;DHT22;47070;49.212;8.084;2022-11-20T02:27:54;8.00;99.90
61207;DHT22;47070;49.212;8.084;2022-11-20T02:31:56;8.20;99.90
61207;DHT22;47070;49.212;8.084;2022-11-20T02:35:58;8.20;99.90
61207;DHT22;47070;49.212;8.084;2022-11-20T02:39:58;8.00;99.90
61207;DHT22;47070;49.212;8.084;2022-11-20T02:43:59;8.10;99.90
61207;DHT22;47070;49.212;8.084;2022-11-20T02:48:00;8.30;99.90
61207;DHT22;47070;49.212;8.084;2022-11-20T02:52:00;8.40;99.90
61207;DHT22;47070;49.212;8.084;2022-11-20T02:56:01;8.40;99.90
61207;DHT22;47070;49.212;8.084;2022-11-20T03:00:03;8.70;99.90
61207;DHT22;47070;49.212;8.084;2022-11-20T03:04:04;8.50;99.90
61207;DHT22;47070;49.212;8.084;2022-11-20T03:08:04;8.50;99.90
61207;DHT22;47070;49.212;8.084;2022-11-20T03:12:05;8.50;99.90
61207;DHT22;47070;49.212;8.084;2022-11-20T03:16:14;8.40;99.90
61207;DHT22;47070;49.212;8.084;2022-11-20T03:20:15;8.40;99.90
61207;DHT22;47070;49.212;8.084;2022-11-20T03:24:16;8.50;99.90
61207;DHT22;47070;49.212;8.084;2022-11-20T03:28:17;8.50;99.90
61207;DHT22;47070;49.212;8.084;2022-11-20T03:32:17;8.60;99.90
61207;DHT22;47070;49.212;8.084;2022-11-20T03:36:19;8.60;99.90
61207;DHT22;47070;49.212;8.084;2022-11-20T03:40:19;8.80;99.90
61207;DHT22;47070;49.212;8.084;2022-11-20T03:44:21;8.70;99.90
61207;DHT22;47070;49.212;8.084;2022-11-20T03:48:22;9.00;99.90
61207;DHT22;47070;49.212;8.084;2022-11-20T03:52:22;8.80;99.90
61207;DHT22;47070;49.212;8.084;2022-11-20T03:56:34;8.70;99.90
61207;DHT22;47070;49.212;8.084;2022-11-20T04:00:35;8.80;99.90
61207;DHT22;47070;49.212;8.084;2022-11-20T04:04:35;8.90;99.90
61207;DHT22;47070;49.212;8.084;2022-11-20T04:08:36;9.00;99.90
61207;DHT22;47070;49.212;8.084;2022-11-20T04:12:36;9.10;99.90
61207;DHT22;47070;49.212;8.084;2022-11-20T04:16:37;9.70;99.90
61207;DHT22;47070;49.212;8.084;2022-11-20T04:20:37;11.20;99.90
61207;DHT22;47070;49.212;8.084;2022-11-20T04:24:38;11.10;99.90
61207;DHT22;47070;49.212;8.084;2022-11-20T04:28:39;12.70;99.90
61207;DHT22;47070;49.212;8.084;2022-11-20T04:32:39;12.30;99.90
61207;DHT22;47070;49.212;8.084;2022-11-20T04:36:40;12.40;99.90
61207;DHT22;47070;49.212;8.084;2022-11-20T04:40:40;12.20;99.90
61207;DHT22;47070;49.212;8.084;2022-11-20T04:44:41;12.10;99.90
61207;DHT22;47070;49.212;8.084;2022-11-20T04:48:41;11.90;99.90
61207;DHT22;47070;49.212;8.084;2022-11-20T04:52:42;12.10;99.90
61207;DHT22;47070;49.212;8.084;2022-11-20T04:56:42;11.30;99.90
61207;DHT22;47070;49.212;8.084;2022-11-20T05:00:43;11.10;99.90
61207;DHT22;47070;49.212;8.084;2022-11-20T05:04:44;11.20;99.90
61207;DHT22;47070;49.212;8.084;2022-11-20T05:08:44;10.90;99.90
61207;DHT22;47070;49.212;8.084;2022-11-20T05:12:45;11.40;99.90
61207;DHT22;47070;49.212;8.084;2022-11-20T05:16:45;12.10;99.90
61207;DHT22;47070;49.212;8.084;2022-11-20T05:20:46;12.20;99.90
61207;DHT22;47070;49.212;8.084;2022-11-20T05:24:46;12.40;99.90
61207;DHT22;47070;49.212;8.084;2022-11-20T05:28:47;12.30;99.90
61207;DHT22;47070;49.212;8.084;2022-11-20T05:32:48;12.10;99.90
61207;DHT22;47070;49.212;8.084;2022-11-20T05:36:48;12.50;99.90
61207;DHT22;47070;49.212;8.084;2022-11-20T05:40:49;12.50;99.90
61207;DHT22;47070;49.212;8.084;2022-11-20T05:44:49;11.60;99.90
61207;DHT22;47070;49.212;8.084;2022-11-20T05:48:50;11.10;99.90
61207;DHT22;47070;49.212;8.084;2022-11-20T05:52:50;10.90;99.90
61207;DHT22;47070;49.212;8.084;2022-11-20T05:56:51;10.70;99.90
61207;DHT22;47070;49.212;8.084;2022-11-20T06:00:52;10.60;99.90
61207;DHT22;47070;49.212;8.084;2022-11-20T06:04:52;10.50;99.90
61207;DHT22;47070;49.212;8.084;2022-11-20T06:08:53;10.70;99.90
61207;DHT22;47070;49.212;8.084;2022-11-20T06:12:57;10.40;99.90
61207;DHT22;47070;49.212;8.084;2022-11-20T06:16:58;10.30;99.90
61207;DHT22;47070;49.212;8.084;2022-11-20T06:21:11;10.40;99.90
61207;DHT22;47070;49.212;8.084;2022-11-20T06:25:12;10.50;99.90
61207;DHT22;47070;49.212;8.084;2022-11-20T06:29:12;11.10;99.90
61207;DHT22;47070;49.212;8.084;2022-11-20T06:33:13;10.80;99.90
61207;DHT22;47070;49.212;8.084;2022-11-20T06:37:13;11.00;99.90
61207;DHT22;47070;49.212;8.084;2022-11-20T06:41:19;11.20;99.90
61207;DHT22;47070;49.212;8.084;2022-11-20T06:45:20;11.00;99.90
61207;DHT22;47070;49.212;8.084;2022-11-20T06:49:21;11.70;99.90
61207;DHT22;47070;49.212;8.084;2022-11-20T06:53:22;11.40;99.90
61207;DHT22;47070;49.212;8.084;2022-11-20T06:57:23;11.60;99.90
61207;DHT22;47070;49.212;8.084;2022-11-20T07:01:23;11.10;99.90
61207;DHT22;47070;49.212;8.084;2022-11-20T07:05:24;10.80;99.90
61207;DHT22;47070;49.212;8.084;2022-11-20T07:09:24;10.80;99.90
61207;DHT22;47070;49.212;8.084;2022-11-20T07:13:26;10.90;99.90
61207;DHT22;47070;49.212;8.084;2022-11-20T07:17:26;10.70;99.90
61207;DHT22;47070;49.212;8.084;2022-11-20T07:21:27;10.60;99.90
61207;DHT22;47070;49.212;8.084;2022-11-20T07:25:28;11.70;99.90
61207;DHT22;47070;49.212;8.084;2022-11-20T07:29:29;11.40;99.90
61207;DHT22;47070;49.212;8.084;2022-11-20T07:33:29;12.00;99.90
61207;DHT22;47070;49.212;8.084;2022-11-20T07:37:30;12.00;99.90
61207;DHT22;47070;49.212;8.084;2022-11-20T07:41:33;11.40;99.90
61207;DHT22;47070;49.212;8.084;2022-11-20T07:45:34;11.20;99.90
61207;DHT22;47070;49.212;8.084;2022-11-20T07:49:34;10.80;99.90
61207;DHT22;47070;49.212;8.084;2022-11-20T07:53:35;10.70;99.90
61207;DHT22;47070;49.212;8.084;2022-11-20T07:57:36;11.50;99.90
61207;DHT22;47070;49.212;8.084;2022-11-20T08:01:36;11.30;99.90
61207;DHT22;47070;49.212;8.084;2022-11-20T08:05:37;11.00;99.90
61207;DHT22;47070;49.212;8.084;2022-11-20T08:09:38;11.30;99.90
61207;DHT22;47070;49.212;8.084;2022-11-20T08:13:38;11.00;99.90
61207;DHT22;47070;49.212;8.084;2022-11-20T08:18:06;10.80;99.90
61207;DHT22;47070;49.212;8.084;2022-11-20T08:22:07;10.80;99.90
61207;DHT22;47070;49.212;8.084;2022-11-20T08:26:07;11.80;99.90
61207;DHT22;47070;49.212;8.084;2022-11-20T08:30:08;11.90;99.90
61207;DHT22;47070;49.212;8.084;2022-11-20T08:34:09;12.40;99.90
61207;DHT22;47070;49.212;8.084;2022-11-20T08:38:10;13.50;99.90
61207;DHT22;47070;49.212;8.084;2022-11-20T08:42:10;14.20;99.90
61207;DHT22;47070;49.212;8.084;2022-11-20T08:46:11;13.70;99.90
61207;DHT22;47070;49.212;8.084;2022-11-20T08:50:13;14.20;99.90
61207;DHT22;47070;49.212;8.084;2022-11-20T08:54:14;14.70;99.90
61207;DHT22;47070;49.212;8.084;2022-11-20T08:58:15;14.50;99.90
61207;DHT22;47070;49.212;8.084;2022-11-20T09:02:15;14.60;99.90
61207;DHT22;47070;49.212;8.084;2022-11-20T09:06:16;14.40;99.90
61207;DHT22;47070;49.212;8.084;2022-11-20T09:10:17;14.40;99.90
61207;DHT22;47070;49.212;8.084;2022-11-20T09:14:17;14.20;99.90
61207;DHT22;47070;49.212;8.084;2022-11-20T09:18:18;13.20;99.90
61207;DHT22;47070;49.212;8.084;2022-11-20T09:22:18;13.10;99.90
61207;DHT22;47070;49.212;8.084;2022-11-20T09:26:19;12.10;99.90
61207;DHT22;47070;49.212;8.084;2022-11-20T09:30:19;12.70;99.90
61207;DHT22;47070;49.212;8.084;2022-11-20T09:34:20;14.30;99.90
61207;DHT22;47070;49.212;8.084;2022-11-20T09:38:20;14.60;99.90
61207;DHT22;47070;49.212;8.084;2022-11-20T09:46:45;12.40;99.90
61207;DHT22;47070;49.212;8.084;2022-11-20T09:50:57;14.10;99.90
61207;DHT22;47070;49.212;8.084;2022-11-20T09:55:01;14.40;99.90
61207;DHT22;47070;49.212;8.084;2022-11-20T09:59:05;14.90;99.90
61207;DHT22;47070;49.212;8.084;2022-11-20T10:03:14;15.40;99.90
61207;DHT22;47070;49.212;8.084;2022-11-20T10:07:24;15.90;99.90
61207;DHT22;47070;49.212;8.084;2022-11-20T10:11:56;15.50;99.90
61207;DHT22;47070;49.212;8.084;2022-11-20T10:25:13;15.80;99.90
61207;DHT22;47070;49.212;8.084;2022-11-20T10:29:29;16.30;99.90
61207;DHT22;47070;49.212;8.084;2022-11-20T10:33:36;16.30;99.90
61207;DHT22;47070;49.212;8.084;2022-11-20T10:37:38;16.40;99.90
61207;DHT22;47070;49.212;8.084;2022-11-20T10:41:42;17.10;99.90
61207;DHT22;47070;49.212;8.084;2022-11-20T10:46:14;15.80;99.90
61207;DHT22;47070;49.212;8.084;2022-11-20T10:50:19;16.10;99.90
61207;DHT22;47070;49.212;8.084;2022-11-20T10:58:52;16.60;99.90
61207;DHT22;47070;49.212;8.084;2022-11-20T11:02:54;16.10;99.90
61207;DHT22;47070;49.212;8.084;2022-11-20T11:07:05;15.90;99.90
61207;DHT22;47070;49.212;8.084;2022-11-20T11:11:20;16.50;99.90
61207;DHT22;47070;49.212;8.084;2022-11-20T11:15:39;16.90;99.90
61207;DHT22;47070;49.212;8.084;2022-11-20T11:19:40;16.30;99.90
61207;DHT22;47070;49.212;8.084;2022-11-20T11:23:42;16.30;99.90
61207;DHT22;47070;49.212;8.084;2022-11-20T11:27:47;15.00;99.90
61207;DHT22;47070;49.212;8.084;2022-11-20T11:31:48;16.00;99.90
61207;DHT22;47070;49.212;8.084;2022-11-20T11:35:50;15.30;99.90
61207;DHT22;47070;49.212;8.084;2022-11-20T11:39:57;14.90;99.90
61207;DHT22;47070;49.212;8.084;2022-11-20T11:44:01;15.00;99.90
61207;DHT22;47070;49.212;8.084;2022-11-20T11:48:22;15.00;99.90
61207;DHT22;47070;49.212;8.084;2022-11-20T11:52:24;15.30;99.90
61207;DHT22;47070;49.212;8.084;2022-11-20T11:56:26;16.30;99.90
61207;DHT22;47070;49.212;8.084;2022-11-20T12:00:28;16.60;99.90
61207;DHT22;47070;49.212;8.084;2022-11-20T12:04:50;16.40;99.90
61207;DHT22;47070;49.212;8.084;2022-11-20T12:09:01;16.80;99.90
61207;DHT22;47070;49.212;8.084;2022-11-20T12:13:50;17.00;99.90
61207;DHT22;47070;49.212;8.084;2022-11-20T12:17:29;17.30;99.90
61207;DHT22;47070;49.212;8.084;2022-11-20T12:26:11;16.90;99.90
61207;DHT22;47070;49.212;8.084;2022-11-20T12:30:16;15.90;99.90
61207;DHT22;47070;49.212;8.084;2022-11-20T12:34:20;16.00;99.90
61207;DHT22;47070;49.212;8.084;2022-11-20T12:38:45;16.80;99.90
61207;DHT22;47070;49.212;8.084;2022-11-20T13:00:25;15.70;99.90
61207;DHT22;47070;49.212;8.084;2022-11-20T13:04:47;15.40;99.90
61207;DHT22;47070;49.212;8.084;2022-11-20T13:08:59;15.50;99.90
61207;DHT22;47070;49.212;8.084;2022-11-20T13:13:26;15.60;99.90
61207;DHT22;47070;49.212;8.084;2022-11-20T13:17:43;15.10;99.90
61207;DHT22;47070;49.212;8.084;2022-11-20T13:21:49;15.60;99.90
61207;DHT22;47070;49.212;8.084;2022-11-20T13:25:50;14.70;99.90
61207;DHT22;47070;49.212;8.084;2022-11-20T13:30:15;15.20;99.90
61207;DHT22;47070;49.212;8.084;2022-11-20T13:34:25;15.60;99.90
61207;DHT22;47070;49.212;8.084;2022-11-20T13:38:26;16.20;99.90
61207;DHT22;47070;49.212;8.084;2022-11-20T13:42:27;16.00;99.90
61207;DHT22;47070;49.212;8.084;2022-11-20T13:46:36;16.20;99.90
61207;DHT22;47070;49.212;8.084;2022-11-20T13:50:39;16.20;99.90
61207;DHT22;47070;49.212;8.084;2022-11-20T14:03:30;15.20;99.90
61207;DHT22;47070;49.212;8.084;2022-11-20T14:07:41;14.70;99.90
61207;DHT22;47070;49.212;8.084;2022-11-20T14:11:47;15.20;99.90
61207;DHT22;47070;49.212;8.084;2022-11-20T14:15:48;15.20;99.90
61207;DHT22;47070;49.212;8.084;2022-11-20T14:20:14;15.20;99.90
61207;DHT22;47070;49.212;8.084;2022-11-20T14:24:24;14.10;99.90
61207;DHT22;47070;49.212;8.084;2022-11-20T14:28:27;14.30;99.90
61207;DHT22;47070;49.212;8.084;2022-11-20T14:32:29;13.90;99.90
61207;DHT22;47070;49.212;8.084;2022-11-20T14:36:31;13.80;99.90
61207;DHT22;47070;49.212;8.084;2022-11-20T14:40:34;14.20;99.90
61207;DHT22;47070;49.212;8.084;2022-11-20T14:44:36;14.10;99.90
61207;DHT22;47070;49.212;8.084;2022-11-20T14:49:07;13.90;99.90
61207;DHT22;47070;49.212;8.084;2022-11-20T14:53:09;14.30;99.90
61207;DHT22;47070;49.212;8.084;2022-11-20T14:57:29;14.00;99.90
61207;DHT22;47070;49.212;8.084;2022-11-20T15:01:32;14.10;99.90
61207;DHT22;47070;49.212;8.084;2022-11-20T15:05:47;15.00;99.90
61207;DHT22;47070;49.212;8.084;2022-11-20T15:09:59;14.80;99.90
61207;DHT22;47070;49.212;8.084;2022-11-20T15:14:06;14.30;99.90
61207;DHT22;47070;49.212;8.084;2022-11-20T15:18:14;14.10;99.90
61207;DHT22;47070;49.212;8.084;2022-11-20T15:22:16;13.80;99.90
61207;DHT22;47070;49.212;8.084;2022-11-20T15:26:25;14.40;99.90
61207;DHT22;47070;49.212;8.084;2022-11-20T15:30:26;14.30;99.90
61207;DHT22;47070;49.212;8.084;2022-11-20T15:34:27;14.50;99.90
61207;DHT22;47070;49.212;8.084;2022-11-20T15:38:28;13.90;99.90
61207;DHT22;47070;49.212;8.084;2022-11-20T15:42:28;14.10;99.90
61207;DHT22;47070;49.212;8.084;2022-11-20T15:46:35;13.80;99.90
61207;DHT22;47070;49.212;8.084;2022-11-20T15:50:52;13.50;99.90
61207;DHT22;47070;49.212;8.084;2022-11-20T15:54:54;13.20;99.90
61207;DHT22;47070;49.212;8.084;2022-11-20T15:58:54;13.30;99.90
61207;DHT22;47070;49.212;8.084;2022-11-20T16:02:55;13.00;99.90
61207;DHT22;47070;49.212;8.084;2022-11-20T16:06:55;12.70;99.90
61207;DHT22;47070;49.212;8.084;2022-11-20T16:10:56;12.90;99.90
61207;DHT22;47070;49.212;8.084;2022-11-20T16:14:56;13.00;99.90
61207;DHT22;47070;49.212;8.084;2022-11-20T16:19:16;13.10;99.90
61207;DHT22;47070;49.212;8.084;2022-11-20T16:23:17;13.20;99.90
61207;DHT22;47070;49.212;8.084;2022-11-20T16:27:18;13.20;99.90
61207;DHT22;47070;49.212;8.084;2022-11-20T16:31:19;13.00;99.90
61207;DHT22;47070;49.212;8.084;2022-11-20T16:35:19;12.90;99.90
61207;DHT22;47070;49.212;8.084;2022-11-20T16:39:20;12.80;99.90
61207;DHT22;47070;49.212;8.084;2022-11-20T16:43:20;13.20;99.90
61207;DHT22;47070;49.212;8.084;2022-11-20T16:47:21;13.30;99.90
61207;DHT22;47070;49.212;8.084;2022-11-20T16:51:22;13.30;99.90
61207;DHT22;47070;49.212;8.084;2022-11-20T16:55:23;13.30;99.90
61207;DHT22;47070;49.212;8.084;2022-11-20T16:59:24;13.20;99.90
61207;DHT22;47070;49.212;8.084;2022-11-20T17:03:24;13.80;99.90
61207;DHT22;47070;49.212;8.084;2022-11-20T17:07:25;13.30;99.90
61207;DHT22;47070;49.212;8.084;2022-11-20T17:11:26;12.80;99.90
61207;DHT22;47070;49.212;8.084;2022-11-20T17:15:27;12.80;99.90
61207;DHT22;47070;49.212;8.084;2022-11-20T17:19:27;12.60;99.90
61207;DHT22;47070;49.212;8.084;2022-11-20T17:23:28;12.20;99.90
61207;DHT22;47070;49.212;8.084;2022-11-20T17:27:29;12.10;99.90
61207;DHT22;47070;49.212;8.084;2022-11-20T17:31:31;11.70;99.90
61207;DHT22;47070;49.212;8.084;2022-11-20T17:35:35;11.80;99.90
61207;DHT22;47070;49.212;8.084;2022-11-20T17:39:36;11.60;99.90
61207;DHT22;47070;49.212;8.084;2022-11-20T17:43:36;11.90;99.90
61207;DHT22;47070;49.212;8.084;2022-11-20T17:47:37;12.00;99.90
61207;DHT22;47070;49.212;8.084;2022-11-20T17:51:37;11.90;99.90
61207;DHT22;47070;49.212;8.084;2022-11-20T17:55:38;12.80;99.90
61207;DHT22;47070;49.212;8.084;2022-11-20T17:59:57;13.40;99.90
61207;DHT22;47070;49.212;8.084;2022-11-20T18:03:58;13.90;99.90
61207;DHT22;47070;49.212;8.084;2022-11-20T18:07:58;13.10;99.90
61207;DHT22;47070;49.212;8.084;2022-11-20T18:11:59;13.70;99.90
61207;DHT22;47070;49.212;8.084;2022-11-20T18:16:06;13.40;99.90
61207;DHT22;47070;49.212;8.084;2022-11-20T18:20:07;13.50;99.90
61207;DHT22;47070;49.212;8.084;2022-11-20T18:24:09;13.30;99.90
61207;DHT22;47070;49.212;8.084;2022-11-20T18:28:09;13.40;99.90
61207;DHT22;47070;49.212;8.084;2022-11-20T18:32:10;13.20;99.90
61207;DHT22;47070;49.212;8.084;2022-11-20T18:36:12;12.80;99.90
61207;DHT22;47070;49.212;8.084;2022-11-20T18:40:13;13.30;99.90
61207;DHT22;47070;49.212;8.084;2022-11-20T18:44:22;13.10;99.90
61207;DHT22;47070;49.212;8.084;2022-11-20T18:48:41;12.20;99.90
61207;DHT22;47070;49.212;8.084;2022-11-20T18:52:42;12.40;99.90
61207;DHT22;47070;49.212;8.084;2022-11-20T18:56:43;12.30;99.90
61207;DHT22;47070;49.212;8.084;2022-11-20T19:00:44;13.00;99.90
61207;DHT22;47070;49.212;8.084;2022-11-20T19:04:45;12.80;99.90
61207;DHT22;47070;49.212;8.084;2022-11-20T19:08:46;12.90;99.90
61207;DHT22;47070;49.212;8.084;2022-11-20T19:12:46;12.70;99.90
61207;DHT22;47070;49.212;8.084;2022-11-20T19:16:47;12.50;99.90
61207;DHT22;47070;49.212;8.084;2022-11-20T19:20:47;12.10;99.90
61207;DHT22;47070;49.212;8.084;2022-11-20T19:24:48;12.40;99.90
61207;DHT22;47070;49.212;8.084;2022-11-20T19:28:49;12.50;99.90
61207;DHT22;47070;49.212;8.084;2022-11-20T19:32:49;12.10;99.90
61207;DHT22;47070;49.212;8.084;2022-11-20T19:36:50;12.80;99.90
61207;DHT22;47070;49.212;8.084;2022-11-20T19:40:51;12.40;99.90
61207;DHT22;47070;49.212;8.084;2022-11-20T19:44:51;12.80;99.90
61207;DHT22;47070;49.212;8.084;2022-11-20T19:48:53;11.90;99.90
61207;DHT22;47070;49.212;8.084;2022-11-20T19:52:55;12.60;99.90
61207;DHT22;47070;49.212;8.084;2022-11-20T19:56:55;13.20;99.90
61207;DHT22;47070;49.212;8.084;2022-11-20T20:00:56;12.50;99.90
61207;DHT22;47070;49.212;8.084;2022-11-20T20:04:56;12.40;99.90
61207;DHT22;47070;49.212;8.084;2022-11-20T20:09:00;13.40;99.90
61207;DHT22;47070;49.212;8.084;2022-11-20T20:13:00;12.80;99.90
61207;DHT22;47070;49.212;8.084;2022-11-20T20:17:01;13.30;99.90
61207;DHT22;47070;49.212;8.084;2022-11-20T20:21:09;13.20;99.90
61207;DHT22;47070;49.212;8.084;2022-11-20T20:25:10;13.40;99.90
61207;DHT22;47070;49.212;8.084;2022-11-20T20:29:11;13.50;99.90
61207;DHT22;47070;49.212;8.084;2022-11-20T20:33:11;13.40;99.90
61207;DHT22;47070;49.212;8.084;2022-11-20T20:37:12;14.00;99.90
61207;DHT22;47070;49.212;8.084;2022-11-20T20:41:13;15.10;99.90
61207;DHT22;47070;49.212;8.084;2022-11-20T20:45:14;15.10;99.90
61207;DHT22;47070;49.212;8.084;2022-11-20T20:49:14;15.20;99.90
61207;DHT22;47070;49.212;8.084;2022-11-20T20:53:15;14.90;99.90
61207;DHT22;47070;49.212;8.084;2022-11-20T20:57:15;14.30;99.90
61207;DHT22;47070;49.212;8.084;2022-11-20T21:01:17;15.10;99.90
61207;DHT22;47070;49.212;8.084;2022-11-20T21:05:18;14.80;99.90
61207;DHT22;47070;49.212;8.084;2022-11-20T21:09:19;15.00;99.90
61207;DHT22;47070;49.212;8.084;2022-11-20T21:13:21;14.50;99.90
61207;DHT22;47070;49.212;8.084;2022-11-20T21:17:22;14.90;99.90
61207;DHT22;47070;49.212;8.084;2022-11-20T21:21:22;14.70;99.90
61207;DHT22;47070;49.212;8.084;2022-11-20T21:25:41;14.50;99.90
61207;DHT22;47070;49.212;8.084;2022-11-20T21:29:42;14.20;99.90
61207;DHT22;47070;49.212;8.084;2022-11-20T21:33:47;14.90;99.90
61207;DHT22;47070;49.212;8.084;2022-11-20T21:37:48;15.00;99.90
61207;DHT22;47070;49.212;8.084;2022-11-20T21:41:48;15.20;99.90
61207;DHT22;47070;49.212;8.084;2022-11-20T21:45:49;14.80;99.90
61207;DHT22;47070;49.212;8.084;2022-11-20T21:49:51;14.10;99.90
61207;DHT22;47070;49.212;8.084;2022-11-20T21:53:53;14.50;99.90
61207;DHT22;47070;49.212;8.084;2022-11-20T21:57:54;14.80;99.90
61207;DHT22;47070;49.212;8.084;2022-11-20T22:01:54;14.80;99.90
61207;DHT22;47070;49.212;8.084;2022-11-20T22:05:57;14.70;99.90
61207;DHT22;47070;49.212;8.084;2022-11-20T22:09:58;14.50;99.90
61207;DHT22;47070;49.212;8.084;2022-11-20T22:13:58;14.50;99.90
61207;DHT22;47070;49.212;8.084;2022-11-20T22:18:18;14.70;99.90
61207;DHT22;47070;49.212;8.084;2022-11-20T22:22:21;14.00;99.90
61207;DHT22;47070;49.212;8.084;2022-11-20T22:26:27;14.70;99.90
61207;DHT22;47070;49.212;8.084;2022-11-20T22:30:28;14.60;99.90
61207;DHT22;47070;49.212;8.084;2022-11-20T22:34:28;14.80;99.90
61207;DHT22;47070;49.212;8.084;2022-11-20T22:38:29;14.70;99.90
61207;DHT22;47070;49.212;8.084;2022-11-20T22:42:30;14.80;99.90
61207;DHT22;47070;49.212;8.084;2022-11-20T22:46:33;14.30;99.90
61207;DHT22;47070;49.212;8.084;2022-11-20T22:50:33;13.90;99.90
61207;DHT22;47070;49.212;8.084;2022-11-20T22:54:34;13.80;99.90
61207;DHT22;47070;49.212;8.084;2022-11-20T22:58:36;14.00;99.90
61207;DHT22;47070;49.212;8.084;2022-11-20T23:02:42;13.50;99.90
61207;DHT22;47070;49.212;8.084;2022-11-20T23:06:42;13.50;99.90
61207;DHT22;47070;49.212;8.084;2022-11-20T23:10:43;13.10;99.90
61207;DHT22;47070;49.212;8.084;2022-11-20T23:14:43;13.40;99.90
61207;DHT22;47070;49.212;8.084;2022-11-20T23:18:44;13.50;99.90
61207;DHT22;47070;49.212;8.084;2022-11-20T23:22:44;14.50;99.90
61207;DHT22;47070;49.212;8.084;2022-11-20T23:26:45;14.20;99.90
61207;DHT22;47070;49.212;8.084;2022-11-20T23:30:47;14.50;99.90
61207;DHT22;47070;49.212;8.084;2022-11-20T23:34:47;14.20;99.90
61207;DHT22;47070;49.212;8.084;2022-11-20T23:38:48;14.80;99.90
61207;DHT22;47070;49.212;8.084;2022-11-20T23:42:48;14.50;99.90
61207;DHT22;47070;49.212;8.084;2022-11-20T23:47:08;14.40;99.90
61207;DHT22;47070;49.212;8.084;2022-11-20T23:51:08;14.00;99.90
61207;DHT22;47070;49.212;8.084;2022-11-20T23:55:09;14.20;99.90
61207;DHT22;47070;49.212;8.084;2022-11-20T23:59:09;14.50;99.90
